»·PEaware :: UAL2348 KPDX-KSFO

UAL2348 :: KPDX-KSFO

FLIGHT INFORMATION

Flight Status: Arrived
Operator:
United Airlines
More flights by this operator :: More flights under this callsign
Pilot: Anonymous 15639 (15639)
Aircraft: BOEING 737-800
(B738)
More flights by this aircraft type
Origin: KPDX Portland Intl
United States
Destination: KSFO San Francisco Intl
United States
More flights between these airports :: More routes between these airports
Route: MINNE5 FAMUK Q3 FOWND MLBEC BDEGA3
File this flight plan on PilotEdge
Remarks: PBN / A1B1C1D1S1S2 DOF / 181011 REG / ZSJSU EET / KZOA0033 OPR / UAL PER / C TALT / CYYJ RMK / TCAS SIMBRIEF
Altitude:
(Current/Filed)
37,000ft
Speed:
(Current/Filed)
466kts
Departed: 11-Oct-18 09:21 AM
Arrived: 11-Oct-18 10:44 AM
Distance/Time
Traveled:
478nm/1:22
Distance/Time
To Go:
Arrived

Flight Plot

Page will automatically refresh every two minutes.

Flight plan parsing failed; only flown route is shown


Map Options




Map Legend


Flown Route
Filed Route
Departure Airport
Arrival Airport
Navaid (VOR, NDB)
Fix

Horizontal Profiles

Position Reports

Time Latitude Longitude Heading Altitude Ground
Speed
11-Oct-18 08:50 45.590248 -122.591561 209 37ft 0kts
11-Oct-18 08:51 45.590248 -122.591561 209 37ft 0kts
11-Oct-18 08:52 45.590248 -122.591561 209 37ft 0kts
11-Oct-18 08:53 45.590248 -122.591561 209 37ft 0kts
11-Oct-18 08:54 45.590248 -122.591561 209 37ft 0kts
11-Oct-18 08:55 45.590248 -122.591561 209 37ft 0kts
11-Oct-18 08:56 45.590248 -122.591561 209 37ft 0kts
11-Oct-18 08:57 45.590248 -122.591561 209 37ft 0kts
11-Oct-18 08:58 45.590248 -122.591561 209 37ft 0kts
11-Oct-18 08:59 45.590248 -122.591561 209 37ft 0kts
11-Oct-18 09:00 45.590248 -122.591561 209 37ft 0kts
11-Oct-18 09:01 45.590248 -122.591561 209 37ft 0kts
11-Oct-18 09:02 45.590248 -122.591561 209 37ft 0kts
11-Oct-18 09:03 45.590248 -122.591561 209 37ft 0kts
11-Oct-18 09:04 45.590248 -122.591561 209 37ft 0kts
11-Oct-18 09:05 45.590248 -122.591561 209 37ft 0kts
11-Oct-18 09:06 45.590248 -122.591561 209 37ft 0kts
11-Oct-18 09:07 45.590248 -122.591561 209 37ft 0kts
11-Oct-18 09:08 45.590248 -122.591561 209 37ft 0kts
11-Oct-18 09:09 45.590248 -122.591561 209 37ft 0kts
11-Oct-18 09:10 45.590248 -122.591561 209 37ft 0kts
11-Oct-18 09:11 45.590248 -122.591561 209 37ft 0kts
11-Oct-18 09:12 45.590352 -122.591477 209 37ft 2kts
11-Oct-18 09:13 45.590838 -122.591144 172 37ft 2kts
11-Oct-18 09:14 45.591065 -122.591373 118 37ft 0kts
11-Oct-18 09:15 45.591065 -122.591373 118 37ft 0kts
11-Oct-18 09:16 45.591065 -122.591373 118 37ft 0kts
11-Oct-18 09:17 45.590756 -122.590582 119 37ft 7kts
11-Oct-18 09:18 45.589554 -122.586391 84 37ft 12kts
11-Oct-18 09:19 45.588444 -122.582548 119 37ft 14kts
11-Oct-18 09:20 45.586272 -122.576966 118 37ft 17kts
11-Oct-18 09:21 45.583866 -122.570804 119 37ft 17kts
11-Oct-18 09:22 45.583053 -122.567039 18 37ft 7kts
11-Oct-18 09:23 45.589750 -122.582706 299 37ft 144kts
11-Oct-18 09:24 45.610811 -122.638953 294 1692ft 201kts
11-Oct-18 09:25 45.638296 -122.726237 300 4220ft 260kts
11-Oct-18 09:26 45.669934 -122.820337 280 7519ft 275kts
11-Oct-18 09:27 45.642212 -122.921675 221 10291ft 305kts
11-Oct-18 09:28 45.557201 -122.950342 165 12661ft 337kts
11-Oct-18 09:29 45.462758 -122.936648 185 15585ft 362kts
11-Oct-18 09:30 45.359803 -122.951212 183 18379ft 385kts
11-Oct-18 09:31 45.250471 -122.964468 182 20944ft 407kts
11-Oct-18 09:32 45.135830 -122.987152 188 23305ft 428kts
11-Oct-18 09:33 45.016100 -123.015810 186 25433ft 448kts
11-Oct-18 09:34 44.891280 -123.045062 185 27394ft 465kts
11-Oct-18 09:35 44.777206 -123.071523 186 28939ft 480kts
11-Oct-18 09:36 44.654573 -123.099829 186 30704ft 487kts
11-Oct-18 09:37 44.522524 -123.130147 185 32635ft 488kts
11-Oct-18 09:38 44.391374 -123.131720 173 34371ft 483kts
11-Oct-18 09:39 44.257971 -123.126999 173 36164ft 480kts
11-Oct-18 09:40 44.125099 -123.122224 173 37161ft 493kts
11-Oct-18 09:41 43.985193 -123.117129 173 37157ft 518kts
11-Oct-18 09:42 43.847408 -123.112308 173 37140ft 517kts
11-Oct-18 09:43 43.723578 -123.107993 173 37142ft 518kts
11-Oct-18 09:44 43.588793 -123.103303 173 37079ft 518kts
11-Oct-18 09:45 43.447117 -123.098411 173 37002ft 517kts
11-Oct-18 09:46 43.305260 -123.093513 173 37003ft 518kts
11-Oct-18 09:47 43.163722 -123.088665 173 37007ft 518kts
11-Oct-18 09:48 43.020505 -123.083767 173 37010ft 518kts
11-Oct-18 09:49 42.879648 -123.078992 173 37007ft 516kts
11-Oct-18 09:50 42.756147 -123.074797 173 37051ft 516kts
11-Oct-18 09:51 42.616689 -123.070092 173 37071ft 516kts
11-Oct-18 09:52 42.473786 -123.065270 173 37074ft 515kts
11-Oct-18 09:53 42.332432 -123.060683 173 37075ft 515kts
11-Oct-18 09:54 42.192510 -123.056183 173 37077ft 516kts
11-Oct-18 09:55 42.050469 -123.051623 173 37082ft 515kts
11-Oct-18 09:56 41.908818 -123.047110 173 37091ft 515kts
11-Oct-18 09:57 41.782949 -123.043097 173 37080ft 515kts
11-Oct-18 09:58 41.643009 -123.038653 173 37090ft 515kts
11-Oct-18 09:59 41.500509 -123.034122 173 37090ft 514kts
11-Oct-18 10:00 41.359270 -123.029649 173 37097ft 514kts
11-Oct-18 10:01 41.217124 -123.025296 173 37094ft 514kts
11-Oct-18 10:02 41.074555 -123.021028 174 37076ft 512kts
11-Oct-18 10:03 40.936492 -123.016902 177 36948ft 485kts
11-Oct-18 10:04 40.812845 -123.013259 177 36939ft 490kts
11-Oct-18 10:05 40.692126 -123.009747 177 36946ft 491kts
11-Oct-18 10:06 40.556799 -123.005777 177 36945ft 489kts
11-Oct-18 10:07 40.421089 -123.001782 177 36945ft 488kts
11-Oct-18 10:08 40.286066 -122.997827 177 36946ft 489kts
11-Oct-18 10:09 40.150836 -122.993861 177 36960ft 489kts
11-Oct-18 10:10 40.015891 -122.989973 177 36972ft 488kts
11-Oct-18 10:11 39.883513 -122.986100 177 36962ft 488kts
11-Oct-18 10:12 39.788088 -122.983315 177 36964ft 488kts
11-Oct-18 10:13 39.682184 -122.980286 174 37001ft 491kts
11-Oct-18 10:14 39.582928 -122.977419 175 37003ft 489kts
11-Oct-18 10:15 39.487147 -122.974581 174 37000ft 490kts
11-Oct-18 10:16 39.353085 -122.970633 175 36997ft 489kts
11-Oct-18 10:17 39.219417 -122.966724 175 37001ft 490kts
11-Oct-18 10:18 39.084148 -122.962825 175 37007ft 486kts
11-Oct-18 10:19 38.950025 -122.960054 178 36460ft 484kts
11-Oct-18 10:20 38.841537 -122.948343 168 35593ft 471kts
11-Oct-18 10:21 38.748040 -122.921033 167 33038ft 481kts
11-Oct-18 10:22 38.665396 -122.896652 167 30649ft 476kts
11-Oct-18 10:23 38.570421 -122.868694 166 28408ft 462kts
11-Oct-18 10:24 38.451258 -122.833686 166 26697ft 435kts
11-Oct-18 10:25 38.334896 -122.799596 166 24683ft 421kts
11-Oct-18 10:26 38.223350 -122.767026 165 22201ft 405kts
11-Oct-18 10:27 38.116063 -122.735866 165 19810ft 389kts
11-Oct-18 10:28 38.013370 -122.706130 165 17572ft 373kts
11-Oct-18 10:29 37.914478 -122.678528 168 15542ft 356kts
11-Oct-18 10:30 37.834832 -122.614740 123 13575ft 339kts
11-Oct-18 10:31 37.767784 -122.535101 137 11910ft 317kts
11-Oct-18 10:32 37.703786 -122.466956 137 11001ft 294kts
11-Oct-18 10:33 37.641395 -122.400411 137 10999ft 294kts
11-Oct-18 10:34 37.572006 -122.351726 164 11017ft 300kts
11-Oct-18 10:35 37.499187 -122.305397 148 10347ft 294kts
11-Oct-18 10:36 37.430085 -122.254637 148 9064ft 286kts
11-Oct-18 10:37 37.371350 -122.195529 100 7883ft 272kts
11-Oct-18 10:38 37.406230 -122.119395 43 6751ft 263kts
11-Oct-18 10:39 37.460288 -122.057622 25 5541ft 263kts
11-Oct-18 10:40 37.508511 -122.094609 283 4438ft 240kts
11-Oct-18 10:41 37.532948 -122.170444 297 3201ft 222kts
11-Oct-18 10:42 37.559801 -122.234928 298 2072ft 200kts
11-Oct-18 10:43 37.582747 -122.289458 298 1206ft 153kts
11-Oct-18 10:44 37.601577 -122.334193 298 474ft 143kts
11-Oct-18 10:45 37.618800 -122.375220 298 21ft 65kts
11-Oct-18 10:46 37.619543 -122.379478 227 21ft 0kts
11-Oct-18 10:47 37.619569 -122.381906 277 21ft 5kts
11-Oct-18 10:48 37.619145 -122.383356 289 21ft 2kts
11-Oct-18 10:49 37.619187 -122.383516 289 21ft 0kts
11-Oct-18 10:50 37.619187 -122.383516 289 21ft 0kts
11-Oct-18 10:51 37.619187 -122.383516 289 21ft 0kts

Navigation Log

Ident Type
Flight plan parsing failed, navigation log unavailable